createdAt,value
2019-01-27T00:00:09.626Z,4.80
2019-01-27T00:00:59.853Z,2.92
2019-01-27T00:01:46.194Z,3.47
2019-01-27T00:02:32.856Z,4.05
2019-01-27T00:03:19.466Z,2.87
2019-01-27T00:04:06.199Z,3.05
2019-01-27T00:04:52.567Z,3.77
2019-01-27T00:05:39.215Z,5.03
2019-01-27T00:06:25.197Z,3.87
2019-01-27T00:07:11.111Z,3.90
2019-01-27T00:07:57.544Z,2.85
2019-01-27T00:08:43.913Z,2.87
2019-01-27T00:09:30.190Z,2.50
2019-01-27T00:10:16.593Z,2.72
2019-01-27T00:11:03.167Z,3.10
2019-01-27T00:11:49.675Z,2.98
2019-01-27T00:12:36.037Z,3.52
2019-01-27T00:13:22.223Z,2.30
2019-01-27T00:14:08.192Z,2.40
2019-01-27T00:14:54.596Z,2.47
2019-01-27T00:15:42.550Z,2.92
2019-01-27T00:16:29.001Z,4.70
2019-01-27T00:17:15.394Z,3.60
2019-01-27T00:18:01.859Z,2.83
2019-01-27T00:18:48.258Z,2.60
2019-01-27T00:19:34.516Z,2.80
2019-01-27T00:20:21.019Z,2.77
2019-01-27T00:21:07.762Z,3.30
2019-01-27T00:21:55.890Z,3.90
2019-01-27T00:22:41.929Z,2.72
2019-01-27T00:23:28.495Z,3.42
2019-01-27T00:24:14.909Z,3.62
2019-01-27T00:25:00.822Z,3.17
2019-01-27T00:25:46.806Z,4.12
2019-01-27T00:26:33.935Z,3.08
2019-01-27T00:27:20.053Z,3.27
2019-01-27T00:28:06.404Z,2.25
2019-01-27T00:28:53.000Z,4.17
2019-01-27T00:29:39.060Z,2.70
2019-01-27T00:30:25.873Z,2.40
2019-01-27T00:31:12.209Z,3.77
2019-01-27T00:31:59.030Z,2.83
2019-01-27T00:32:45.418Z,2.35
2019-01-27T00:33:32.118Z,3.15
2019-01-27T00:34:18.607Z,3.80
2019-01-27T00:35:05.110Z,2.42
2019-01-27T00:35:51.210Z,3.47
2019-01-27T00:36:37.551Z,3.12
2019-01-27T00:37:23.998Z,2.67
2019-01-27T00:38:10.035Z,2.60
2019-01-27T00:38:56.519Z,2.27
2019-01-27T00:39:43.026Z,3.55
2019-01-27T00:40:29.386Z,2.20
2019-01-27T00:41:15.248Z,2.40
2019-01-27T00:42:01.140Z,2.20
2019-01-27T00:42:47.641Z,3.98
2019-01-27T00:43:34.018Z,2.62
2019-01-27T00:44:20.351Z,2.95
2019-01-27T00:45:08.919Z,3.62
2019-01-27T00:45:55.227Z,3.60
2019-01-27T00:46:41.173Z,2.47
2019-01-27T00:47:27.156Z,2.77
2019-01-27T00:48:13.140Z,2.22
2019-01-27T00:48:59.267Z,2.42
2019-01-27T00:49:45.728Z,2.52
2019-01-27T00:50:32.005Z,2.98
2019-01-27T00:51:18.113Z,2.37
2019-01-27T00:52:04.691Z,2.55
2019-01-27T00:52:50.621Z,2.42
2019-01-27T00:53:36.773Z,2.33
2019-01-27T00:54:23.324Z,2.33
2019-01-27T00:55:12.674Z,2.05
2019-01-27T00:55:59.233Z,3.02
2019-01-27T00:56:45.422Z,3.10
2019-01-27T00:57:31.474Z,2.70
2019-01-27T00:58:17.674Z,2.72
2019-01-27T00:59:05.309Z,2.37
2019-01-27T00:59:51.735Z,1.70
2019-01-27T01:00:37.983Z,2.70
2019-01-27T01:01:24.653Z,2.62
2019-01-27T01:02:11.051Z,2.60
2019-01-27T01:02:57.194Z,3.08
2019-01-27T01:03:43.719Z,2.35
2019-01-27T01:04:29.751Z,2.70
2019-01-27T01:05:16.157Z,3.42
2019-01-27T01:06:02.572Z,3.00
2019-01-27T01:06:48.732Z,3.17
2019-01-27T01:07:35.446Z,2.95
2019-01-27T01:08:21.618Z,2.15
2019-01-27T01:09:10.403Z,2.83
2019-01-27T01:09:57.758Z,2.50
2019-01-27T01:10:44.122Z,4.62
2019-01-27T01:11:30.315Z,6.60
2019-01-27T01:12:16.755Z,2.75
2019-01-27T01:13:03.995Z,2.70
2019-01-27T01:13:50.178Z,4.53
2019-01-27T01:14:36.593Z,3.35
2019-01-27T01:15:22.509Z,5.45
2019-01-27T01:16:08.546Z,2.70
2019-01-27T01:16:54.526Z,3.50
2019-01-27T01:17:40.574Z,3.22
2019-01-27T01:18:26.964Z,4.30
2019-01-27T01:19:13.039Z,3.72
2019-01-27T01:19:59.279Z,3.95
2019-01-27T01:20:45.723Z,2.55
2019-01-27T01:21:32.274Z,3.15
2019-01-27T01:22:19.022Z,3.12
2019-01-27T01:23:05.583Z,4.50
2019-01-27T01:23:51.576Z,3.37
2019-01-27T01:24:37.550Z,2.60
2019-01-27T01:25:23.694Z,2.60
2019-01-27T01:26:10.336Z,3.98
2019-01-27T01:26:56.792Z,3.20
2019-01-27T01:27:43.078Z,4.12
2019-01-27T01:28:29.593Z,4.40
2019-01-27T01:29:16.273Z,3.15
2019-01-27T01:30:03.878Z,2.80
2019-01-27T01:30:51.668Z,3.95
2019-01-27T01:31:38.206Z,3.42
2019-01-27T01:32:25.626Z,3.77
2019-01-27T01:33:12.123Z,3.27
2019-01-27T01:33:58.648Z,3.33
2019-01-27T01:34:44.708Z,3.30
2019-01-27T01:35:30.942Z,4.72
2019-01-27T01:36:17.562Z,4.75
2019-01-27T01:37:04.283Z,3.22
2019-01-27T01:37:50.579Z,3.35
2019-01-27T01:38:36.497Z,4.60
2019-01-27T01:39:22.823Z,2.65
2019-01-27T01:40:11.918Z,5.08
2019-01-27T01:40:58.029Z,3.60
2019-01-27T01:41:44.565Z,5.30
2019-01-27T01:42:30.939Z,4.35
2019-01-27T01:43:16.883Z,4.28
2019-01-27T01:44:03.262Z,3.45
2019-01-27T01:44:49.575Z,4.30
2019-01-27T01:45:36.903Z,3.65
2019-01-27T01:46:23.335Z,3.70
2019-01-27T01:47:09.551Z,6.45
2019-01-27T01:47:55.559Z,2.70
2019-01-27T01:48:41.638Z,3.20
2019-01-27T01:49:29.190Z,3.72
2019-01-27T01:50:15.519Z,3.77
2019-01-27T01:51:01.819Z,2.30
2019-01-27T01:51:49.490Z,3.25
2019-01-27T01:52:36.054Z,2.22
2019-01-27T01:53:22.631Z,3.30
2019-01-27T01:54:11.698Z,3.37
2019-01-27T01:54:58.929Z,2.25
2019-01-27T01:55:45.125Z,2.85
2019-01-27T01:56:30.999Z,1.87
2019-01-27T01:57:17.143Z,2.72
2019-01-27T01:58:04.508Z,3.20
2019-01-27T01:58:51.388Z,2.30
2019-01-27T01:59:37.640Z,2.58
2019-01-27T02:00:25.927Z,3.98
2019-01-27T02:01:12.795Z,2.98
2019-01-27T02:01:59.116Z,2.30
2019-01-27T02:02:45.502Z,2.02
2019-01-27T02:03:31.724Z,3.45
2019-01-27T02:04:18.526Z,4.30
2019-01-27T02:05:05.370Z,2.83
2019-01-27T02:05:51.958Z,2.72
2019-01-27T02:06:37.963Z,3.50
2019-01-27T02:07:23.930Z,2.30
2019-01-27T02:08:09.891Z,2.85
2019-01-27T02:08:56.133Z,3.72
2019-01-27T02:09:42.299Z,3.25
2019-01-27T02:10:28.179Z,1.80
2019-01-27T02:11:15.130Z,1.80
2019-01-27T02:12:02.558Z,3.02
2019-01-27T02:12:49.577Z,3.10
2019-01-27T02:13:47.971Z,2.08
2019-01-27T02:14:34.327Z,2.17
2019-01-27T02:16:05.715Z,2.27
2019-01-27T02:16:51.964Z,4.50
2019-01-27T02:17:38.508Z,2.45
2019-01-27T02:18:25.260Z,2.27
2019-01-27T02:19:12.516Z,2.05
2019-01-27T02:19:59.019Z,4.72
2019-01-27T02:20:45.330Z,3.90
2019-01-27T02:21:31.192Z,3.58
2019-01-27T02:22:17.072Z,2.15
2019-01-27T02:23:03.728Z,2.75
2019-01-27T02:23:49.950Z,2.77
2019-01-27T02:24:36.375Z,1.77
2019-01-27T02:25:22.288Z,2.52
2019-01-27T02:26:10.464Z,2.08
2019-01-27T02:26:56.618Z,3.75
2019-01-27T02:27:42.929Z,2.12
2019-01-27T02:28:29.318Z,2.67
2019-01-27T02:29:15.648Z,3.72
2019-01-27T02:30:02.049Z,1.42
2019-01-27T02:31:24.367Z,3.00
2019-01-27T02:32:10.346Z,2.10
2019-01-27T02:32:57.930Z,2.45
2019-01-27T02:33:45.293Z,2.05
2019-01-27T02:34:31.523Z,2.83
2019-01-27T02:35:17.400Z,2.05
2019-01-27T02:36:03.776Z,3.35
2019-01-27T02:36:50.186Z,2.80
2019-01-27T02:37:36.769Z,2.85
2019-01-27T02:38:23.083Z,2.15
2019-01-27T02:39:09.413Z,2.10
2019-01-27T02:39:55.699Z,1.70
2019-01-27T02:40:42.234Z,2.45
2019-01-27T02:41:28.280Z,1.52
2019-01-27T02:42:14.752Z,2.45
2019-01-27T02:43:01.914Z,1.80
2019-01-27T02:43:48.586Z,2.40
2019-01-27T02:44:36.067Z,2.62
2019-01-27T02:45:22.123Z,2.58
2019-01-27T02:46:08.306Z,1.80
2019-01-27T02:46:54.265Z,4.17
2019-01-27T02:47:40.398Z,2.92
2019-01-27T02:48:26.411Z,2.75
2019-01-27T02:49:13.800Z,3.67
2019-01-27T02:50:01.261Z,3.92
2019-01-27T02:50:48.851Z,2.98
2019-01-27T02:51:36.352Z,4.45
2019-01-27T02:52:22.727Z,4.78
2019-01-27T02:53:08.899Z,2.72
2019-01-27T02:53:56.962Z,5.22
2019-01-27T02:54:44.105Z,5.05
2019-01-27T02:55:31.717Z,3.55
2019-01-27T02:56:18.316Z,7.00
2019-01-27T02:57:04.994Z,5.25
2019-01-27T02:57:51.231Z,4.28
2019-01-27T02:58:37.771Z,6.03
2019-01-27T02:59:23.867Z,5.97
2019-01-27T03:00:11.816Z,5.25
2019-01-27T03:00:57.835Z,4.75
2019-01-27T03:01:44.422Z,4.78
2019-01-27T03:02:30.950Z,4.97
2019-01-27T03:03:17.352Z,7.97
2019-01-27T03:04:05.041Z,6.20
2019-01-27T03:04:51.742Z,5.78
2019-01-27T03:05:57.721Z,7.28
2019-01-27T03:06:52.412Z,7.08
2019-01-27T03:07:38.820Z,6.60
2019-01-27T03:08:26.252Z,6.37
2019-01-27T03:09:16.809Z,8.23
2019-01-27T03:10:04.448Z,7.00
2019-01-27T03:10:50.410Z,8.20
2019-01-27T03:11:49.783Z,6.12
2019-01-27T03:12:37.235Z,6.33
2019-01-27T03:13:23.525Z,8.38
2019-01-27T03:14:09.383Z,5.58
2019-01-27T03:14:55.293Z,7.53
2019-01-27T03:15:41.691Z,7.55
2019-01-27T03:16:28.120Z,7.92
2019-01-27T03:17:16.207Z,7.83
2019-01-27T03:18:02.886Z,6.62
2019-01-27T03:18:49.127Z,7.60
2019-01-27T03:19:35.520Z,6.92
2019-01-27T03:20:21.767Z,7.22
2019-01-27T03:21:07.836Z,7.55
2019-01-27T03:21:55.188Z,6.78
2019-01-27T03:22:41.638Z,7.05
2019-01-27T03:23:27.564Z,8.80
2019-01-27T03:24:13.624Z,5.72
2019-01-27T03:24:59.558Z,6.25
2019-01-27T03:25:45.568Z,6.50
2019-01-27T03:26:32.845Z,6.50
2019-01-27T03:27:20.475Z,6.85
2019-01-27T03:28:06.806Z,8.95
2019-01-27T03:28:53.363Z,7.87
2019-01-27T03:29:39.346Z,7.87
2019-01-27T03:30:25.417Z,7.15
2019-01-27T03:31:11.701Z,6.15
2019-01-27T03:31:58.195Z,6.40
2019-01-27T03:32:44.771Z,8.30
2019-01-27T03:33:31.990Z,6.92
2019-01-27T03:34:18.416Z,8.45
2019-01-27T03:35:05.468Z,6.53
2019-01-27T03:35:51.750Z,6.37
2019-01-27T03:36:37.925Z,6.95
2019-01-27T03:37:23.944Z,8.88
2019-01-27T03:38:09.916Z,8.70
2019-01-27T03:38:56.106Z,7.47
2019-01-27T03:39:41.971Z,7.42
2019-01-27T03:40:27.924Z,10.68
2019-01-27T03:41:14.121Z,7.58
2019-01-27T03:42:01.308Z,8.93
2019-01-27T03:42:47.797Z,8.35
2019-01-27T03:43:34.011Z,9.25
2019-01-27T03:44:20.312Z,7.85
2019-01-27T03:45:09.005Z,7.33
2019-01-27T03:45:54.917Z,7.10
2019-01-27T03:46:40.899Z,8.18
2019-01-27T03:47:26.912Z,9.20
2019-01-27T03:48:12.828Z,7.90
2019-01-27T03:48:58.871Z,8.30
2019-01-27T03:49:45.296Z,7.60
2019-01-27T03:50:31.441Z,6.05
2019-01-27T03:51:17.826Z,8.78
2019-01-27T03:52:04.207Z,6.10
2019-01-27T03:52:50.380Z,7.35
2019-01-27T03:53:37.074Z,6.60
2019-01-27T03:54:23.333Z,7.47
2019-01-27T03:55:13.053Z,6.35
2019-01-27T03:55:59.536Z,9.20
2019-01-27T03:56:45.469Z,7.83
2019-01-27T03:57:31.367Z,8.78
2019-01-27T03:58:18.474Z,8.68
2019-01-27T03:59:04.905Z,7.62
2019-01-27T03:59:51.409Z,7.87
2019-01-27T04:00:37.882Z,6.55
2019-01-27T04:01:25.348Z,7.20
2019-01-27T04:02:12.128Z,7.03
2019-01-27T04:02:58.583Z,6.60
2019-01-27T04:03:44.596Z,7.95
2019-01-27T04:04:30.610Z,8.10
2019-01-27T04:05:17.216Z,6.30
2019-01-27T04:06:03.565Z,8.78
2019-01-27T04:06:49.797Z,6.95
2019-01-27T04:07:36.487Z,4.47
2019-01-27T04:08:22.762Z,5.50
2019-01-27T04:09:10.513Z,6.47
2019-01-27T04:09:56.361Z,6.80
2019-01-27T04:10:42.321Z,6.65
2019-01-27T04:11:28.981Z,6.55
2019-01-27T04:12:14.861Z,5.47
2019-01-27T04:13:00.799Z,5.47
2019-01-27T04:13:47.222Z,6.03
2019-01-27T04:14:33.166Z,4.67
2019-01-27T04:15:19.337Z,4.83
2019-01-27T04:16:05.617Z,6.45
2019-01-27T04:16:52.691Z,5.17
2019-01-27T04:17:38.852Z,3.83
2019-01-27T04:18:25.356Z,5.60
2019-01-27T04:19:11.204Z,4.60
2019-01-27T04:19:58.326Z,5.28
2019-01-27T04:20:44.585Z,4.78
2019-01-27T04:21:31.717Z,4.58
2019-01-27T04:22:18.364Z,4.97
2019-01-27T04:23:05.926Z,3.45
2019-01-27T04:23:52.244Z,5.37
2019-01-27T04:24:39.451Z,3.58
2019-01-27T04:25:28.009Z,4.28
2019-01-27T04:26:14.231Z,3.95
2019-01-27T04:27:01.325Z,4.47
2019-01-27T04:27:47.641Z,3.92
2019-01-27T04:28:33.516Z,3.40
2019-01-27T04:29:19.520Z,3.42
2019-01-27T04:30:08.771Z,2.85
2019-01-27T04:30:54.793Z,3.52
2019-01-27T04:31:41.139Z,2.92
2019-01-27T04:32:27.083Z,2.55
2019-01-27T04:33:13.494Z,2.30
2019-01-27T04:33:59.439Z,2.08
2019-01-27T04:34:45.375Z,2.10
2019-01-27T04:35:31.399Z,5.45
2019-01-27T04:36:17.431Z,2.62
2019-01-27T04:37:03.577Z,3.00
2019-01-27T04:37:50.214Z,3.67
2019-01-27T04:38:36.765Z,2.20
2019-01-27T04:39:26.468Z,1.52
2019-01-27T04:40:15.170Z,2.35
2019-01-27T04:41:05.018Z,2.67
2019-01-27T04:41:51.366Z,2.00
2019-01-27T04:42:37.733Z,3.20
2019-01-27T04:43:24.031Z,2.42
2019-01-27T04:44:09.993Z,2.47
2019-01-27T04:44:55.877Z,2.02
2019-01-27T04:45:41.802Z,2.45
2019-01-27T04:46:27.815Z,1.90
2019-01-27T04:47:13.926Z,2.77
2019-01-27T04:48:00.465Z,1.35
2019-01-27T04:48:46.524Z,2.20
2019-01-27T04:49:32.869Z,2.55
2019-01-27T04:50:19.194Z,1.35
2019-01-27T04:51:05.591Z,2.02
2019-01-27T04:51:52.115Z,2.15
2019-01-27T04:52:38.017Z,1.80
2019-01-27T04:53:23.979Z,1.57
2019-01-27T04:54:09.931Z,1.35
2019-01-27T04:54:56.184Z,1.42
2019-01-27T04:55:42.196Z,1.57
2019-01-27T04:56:28.173Z,1.42
2019-01-27T04:57:14.075Z,1.35
2019-01-27T04:58:00.042Z,2.65
2019-01-27T04:58:45.927Z,1.30
2019-01-27T04:59:31.876Z,1.00
2019-01-27T05:00:21.052Z,1.30
2019-01-27T05:01:07.290Z,1.50
2019-01-27T05:01:53.615Z,1.60
2019-01-27T05:02:47.231Z,1.05
2019-01-27T05:03:50.853Z,3.08
2019-01-27T05:04:39.280Z,1.95
2019-01-27T05:05:25.241Z,2.90
2019-01-27T05:06:12.224Z,1.55
2019-01-27T05:06:58.818Z,0.75
2019-01-27T05:07:45.097Z,1.72
2019-01-27T05:08:32.046Z,1.12
2019-01-27T05:09:18.328Z,1.32
2019-01-27T05:10:05.458Z,0.95
2019-01-27T05:10:51.352Z,1.37
2019-01-27T05:11:37.255Z,0.90
2019-01-27T05:12:23.086Z,1.95
2019-01-27T05:13:10.600Z,2.30
2019-01-27T05:13:56.936Z,0.82
2019-01-27T05:14:43.377Z,0.95
2019-01-27T05:15:31.465Z,1.47
2019-01-27T05:16:17.885Z,1.67
2019-01-27T05:17:04.173Z,2.12
2019-01-27T05:17:50.143Z,3.98
2019-01-27T05:18:36.120Z,2.08
2019-01-27T05:19:22.112Z,1.50
2019-01-27T05:20:10.546Z,0.68
2019-01-27T05:20:56.425Z,1.72
2019-01-27T05:21:42.359Z,2.47
2019-01-27T05:22:28.814Z,1.62
2019-01-27T05:23:15.246Z,0.70
2019-01-27T05:24:01.304Z,1.50
2019-01-27T05:24:49.401Z,2.25
2019-01-27T05:25:36.677Z,1.45
2019-01-27T05:26:22.740Z,1.32
2019-01-27T05:27:09.005Z,3.62
2019-01-27T05:27:55.018Z,1.37
2019-01-27T05:28:40.925Z,0.62
2019-01-27T05:29:26.892Z,2.42
2019-01-27T05:30:16.124Z,1.22
2019-01-27T05:31:02.422Z,1.72
2019-01-27T05:31:48.998Z,1.65
2019-01-27T05:32:34.901Z,1.75
2019-01-27T05:33:20.912Z,1.00
2019-01-27T05:34:07.467Z,1.47
2019-01-27T05:34:53.541Z,1.40
2019-01-27T05:35:40.166Z,1.02
2019-01-27T05:36:26.580Z,1.47
2019-01-27T05:37:13.232Z,1.70
2019-01-27T05:37:59.389Z,1.00
2019-01-27T05:38:45.585Z,1.65
2019-01-27T05:39:31.895Z,1.00
2019-01-27T05:40:18.466Z,1.55
2019-01-27T05:41:04.972Z,1.25
2019-01-27T05:41:51.275Z,1.05
2019-01-27T05:42:37.135Z,2.47
2019-01-27T05:43:23.120Z,2.00
2019-01-27T05:44:09.502Z,0.60
2019-01-27T05:44:55.738Z,1.82
2019-01-27T05:45:41.642Z,1.27
2019-01-27T05:46:27.487Z,2.22
2019-01-27T05:47:13.475Z,1.52
2019-01-27T05:47:59.537Z,1.87
2019-01-27T05:48:45.844Z,1.65
2019-01-27T05:49:31.712Z,1.82
2019-01-27T05:50:17.947Z,2.50
2019-01-27T05:51:04.266Z,2.45
2019-01-27T05:51:50.188Z,1.60
2019-01-27T05:52:36.223Z,2.10
2019-01-27T05:53:22.326Z,3.35
2019-01-27T05:54:08.912Z,2.30
2019-01-27T05:54:55.241Z,1.50
2019-01-27T05:55:41.631Z,1.87
2019-01-27T05:56:27.731Z,2.70
2019-01-27T05:57:13.619Z,1.05
2019-01-27T05:58:00.567Z,1.98
2019-01-27T05:58:46.753Z,1.60
2019-01-27T05:59:33.248Z,1.42
2019-01-27T06:00:35.054Z,1.27
2019-01-27T06:01:21.176Z,1.75
2019-01-27T06:02:07.075Z,1.60
2019-01-27T06:02:54.165Z,2.00
2019-01-27T06:03:40.532Z,1.52
2019-01-27T06:04:27.587Z,2.12
2019-01-27T06:05:13.754Z,1.47
2019-01-27T06:06:00.149Z,1.62
2019-01-27T06:06:46.068Z,1.27
2019-01-27T06:07:32.072Z,1.45
2019-01-27T06:08:19.110Z,2.35
2019-01-27T06:09:07.311Z,1.52
2019-01-27T06:09:53.481Z,1.20
2019-01-27T06:10:39.972Z,1.80
2019-01-27T06:11:26.331Z,1.82
2019-01-27T06:12:12.229Z,1.87
2019-01-27T06:12:58.625Z,1.45
2019-01-27T06:13:44.973Z,1.82
2019-01-27T06:14:31.393Z,1.52
2019-01-27T06:15:19.055Z,1.95
2019-01-27T06:16:05.014Z,1.52
2019-01-27T06:16:52.101Z,1.00
2019-01-27T06:17:38.350Z,1.07
2019-01-27T06:18:24.458Z,1.57
2019-01-27T06:19:10.600Z,1.75
2019-01-27T06:19:57.155Z,1.00
2019-01-27T06:20:43.525Z,1.77
2019-01-27T06:21:29.828Z,1.72
2019-01-27T06:22:15.990Z,1.00
2019-01-27T06:23:02.494Z,1.27
2019-01-27T06:23:49.074Z,1.40
2019-01-27T06:24:35.218Z,1.27
2019-01-27T06:25:21.270Z,0.93
2019-01-27T06:26:07.734Z,1.10
2019-01-27T06:26:53.671Z,1.52
2019-01-27T06:27:40.101Z,0.95
2019-01-27T06:28:26.617Z,1.57
2019-01-27T06:29:12.716Z,1.87
2019-01-27T06:29:58.486Z,2.70
2019-01-27T06:30:45.055Z,1.27
2019-01-27T06:31:31.318Z,0.75
2019-01-27T06:32:33.791Z,1.40
2019-01-27T06:33:31.253Z,1.87
2019-01-27T06:34:19.767Z,1.10
2019-01-27T06:35:06.051Z,1.60
2019-01-27T06:35:52.070Z,1.00
2019-01-27T06:36:38.447Z,2.15
2019-01-27T06:37:25.007Z,0.53
2019-01-27T06:38:11.397Z,0.60
2019-01-27T06:38:58.030Z,0.85
2019-01-27T06:39:44.451Z,1.02
2019-01-27T06:40:31.922Z,0.72
2019-01-27T06:41:17.910Z,0.80
2019-01-27T06:42:04.082Z,0.72
2019-01-27T06:42:50.586Z,0.62
2019-01-27T06:43:36.986Z,1.05
2019-01-27T06:44:23.182Z,1.60
2019-01-27T06:45:13.719Z,0.57
2019-01-27T06:46:00.015Z,1.20
2019-01-27T06:46:46.059Z,1.15
2019-01-27T06:47:32.248Z,0.50
2019-01-27T06:48:20.296Z,0.42
2019-01-27T06:49:06.670Z,0.78
2019-01-27T06:49:52.588Z,0.78
2019-01-27T06:50:41.904Z,2.67
2019-01-27T06:51:27.847Z,2.60
2019-01-27T06:52:14.969Z,2.02
2019-01-27T06:53:02.729Z,2.30
2019-01-27T06:53:48.790Z,1.32
2019-01-27T06:54:34.760Z,1.60
2019-01-27T06:55:21.049Z,1.20
2019-01-27T06:56:07.365Z,1.05
2019-01-27T06:56:53.796Z,1.37
2019-01-27T06:57:40.035Z,2.20
2019-01-27T06:58:45.655Z,1.62
2019-01-27T06:59:54.654Z,1.17
2019-01-27T07:01:00.170Z,1.77
2019-01-27T07:01:54.615Z,0.93
2019-01-27T07:02:49.154Z,1.92
2019-01-27T07:04:12.818Z,0.82
2019-01-27T07:05:12.378Z,2.33
2019-01-27T07:06:18.576Z,1.62
2019-01-27T07:07:27.508Z,1.20
2019-01-27T07:08:35.778Z,4.37
2019-01-27T07:09:56.609Z,1.12
2019-01-27T07:10:57.699Z,0.40
2019-01-27T07:11:57.343Z,0.80
2019-01-27T07:13:15.189Z,0.90
2019-01-27T07:14:20.859Z,1.50
2019-01-27T07:15:27.586Z,2.30
2019-01-27T07:16:33.032Z,1.15
2019-01-27T07:17:39.672Z,0.75
2019-01-27T07:18:46.163Z,0.55
2019-01-27T07:19:51.811Z,3.95
2019-01-27T07:20:47.438Z,1.12
2019-01-27T07:21:51.595Z,1.45
2019-01-27T07:22:43.050Z,0.70
2019-01-27T07:23:48.742Z,0.30
2019-01-27T07:25:03.093Z,1.60
2019-01-27T07:25:59.859Z,1.00
2019-01-27T07:26:54.979Z,0.35
2019-01-27T07:28:00.503Z,0.68
2019-01-27T07:28:52.722Z,0.72
2019-01-27T07:30:01.597Z,1.22
2019-01-27T07:31:00.713Z,0.62
2019-01-27T07:32:06.569Z,0.90
2019-01-27T07:33:13.542Z,1.17
2019-01-27T07:34:17.834Z,1.60
2019-01-27T07:35:26.070Z,1.20
2019-01-27T07:36:44.016Z,1.32
2019-01-27T07:38:12.145Z,3.95
2019-01-27T07:39:08.657Z,1.77
2019-01-27T07:40:05.096Z,1.45
2019-01-27T07:41:13.887Z,1.75
2019-01-27T07:42:07.749Z,1.57
2019-01-27T07:43:13.648Z,0.70
2019-01-27T07:44:28.525Z,1.77
2019-01-27T07:45:22.944Z,1.47
2019-01-27T07:46:14.327Z,1.10
2019-01-27T07:47:09.321Z,1.12
2019-01-27T07:48:31.412Z,0.82
2019-01-27T07:49:33.828Z,1.95
2019-01-27T07:50:44.502Z,1.52
2019-01-27T07:51:47.646Z,0.95
2019-01-27T07:52:49.696Z,1.00
2019-01-27T07:53:43.483Z,1.80
2019-01-27T07:54:49.425Z,2.30
2019-01-27T07:55:45.030Z,0.40
2019-01-27T07:56:40.297Z,0.93
2019-01-27T07:57:38.699Z,2.12
2019-01-27T07:58:50.239Z,1.32
2019-01-27T07:59:58.175Z,1.30
2019-01-27T08:01:06.660Z,0.95
2019-01-27T08:02:12.315Z,1.10
2019-01-27T08:03:12.173Z,1.57
2019-01-27T08:04:10.386Z,1.25
2019-01-27T08:05:16.236Z,1.45
2019-01-27T08:06:18.457Z,1.32
2019-01-27T08:07:11.418Z,2.67
2019-01-27T08:08:07.099Z,1.12
2019-01-27T08:09:24.714Z,1.70
2019-01-27T08:10:39.272Z,1.65
2019-01-27T08:11:36.525Z,1.70
2019-01-27T08:12:32.782Z,1.30
2019-01-27T08:13:44.560Z,3.20
2019-01-27T08:14:42.904Z,1.15
2019-01-27T08:15:52.983Z,2.80
2019-01-27T08:17:08.123Z,1.87
2019-01-27T08:18:17.528Z,0.90
2019-01-27T08:19:25.721Z,1.90
2019-01-27T08:20:22.383Z,2.27
2019-01-27T08:21:25.363Z,1.75
2019-01-27T08:22:30.369Z,1.80
2019-01-27T08:23:35.985Z,0.90
2019-01-27T08:24:44.653Z,0.70
2019-01-27T08:25:39.328Z,1.17
2019-01-27T08:26:51.191Z,1.50
2019-01-27T08:27:53.722Z,4.12
2019-01-27T08:28:52.294Z,1.92
2019-01-27T08:30:00.699Z,2.05
2019-01-27T08:31:08.710Z,2.90
2019-01-27T08:32:18.002Z,1.20
2019-01-27T08:33:17.811Z,2.67
2019-01-27T08:34:22.259Z,1.35
2019-01-27T08:35:27.699Z,1.72
2019-01-27T08:36:42.167Z,1.00
2019-01-27T08:37:46.370Z,2.65
2019-01-27T08:38:52.577Z,1.95
2019-01-27T08:39:59.686Z,4.85
2019-01-27T08:41:05.675Z,1.47
2019-01-27T08:42:14.706Z,2.25
2019-01-27T08:43:20.271Z,3.27
2019-01-27T08:44:15.563Z,1.52
2019-01-27T08:45:22.591Z,3.30
2019-01-27T08:46:18.638Z,2.58
2019-01-27T08:47:04.818Z,3.17
2019-01-27T08:47:51.363Z,2.42
2019-01-27T08:48:37.723Z,2.33
2019-01-27T08:49:24.204Z,1.02
2019-01-27T08:50:14.254Z,1.62
2019-01-27T08:51:00.459Z,2.20
2019-01-27T08:51:46.961Z,2.40
2019-01-27T08:52:33.427Z,1.10
2019-01-27T08:53:19.374Z,2.05
2019-01-27T08:54:05.734Z,2.95
2019-01-27T08:54:52.043Z,3.02
2019-01-27T08:55:40.258Z,3.08
2019-01-27T08:56:26.770Z,1.32
2019-01-27T08:57:13.255Z,1.80
2019-01-27T08:57:59.579Z,1.12
2019-01-27T08:58:45.845Z,2.70
2019-01-27T08:59:32.174Z,2.87
2019-01-27T09:00:24.259Z,1.77
2019-01-27T09:01:39.117Z,0.90
2019-01-27T09:02:35.862Z,1.80
2019-01-27T09:03:36.941Z,2.75
2019-01-27T09:04:27.209Z,1.87
2019-01-27T09:05:26.462Z,4.03
2019-01-27T09:06:22.814Z,2.67
2019-01-27T09:07:32.718Z,1.55
2019-01-27T09:08:38.303Z,2.62
2019-01-27T09:09:35.504Z,4.50
2019-01-27T09:10:40.345Z,4.10
2019-01-27T09:11:51.699Z,2.45
2019-01-27T09:13:00.567Z,1.85
2019-01-27T09:13:54.726Z,2.35
2019-01-27T09:14:53.906Z,4.12
2019-01-27T09:16:00.039Z,3.37
2019-01-27T09:17:04.372Z,3.95
2019-01-27T09:17:58.282Z,1.77
2019-01-27T09:19:09.881Z,2.62
2019-01-27T09:20:19.027Z,3.37
2019-01-27T09:21:18.582Z,3.02
2019-01-27T09:22:18.042Z,7.35
2019-01-27T09:23:23.979Z,6.83
2019-01-27T09:24:25.896Z,2.72
2019-01-27T09:25:30.605Z,5.70
2019-01-27T09:26:22.107Z,2.98
2019-01-27T09:27:25.239Z,2.33
2019-01-27T09:28:46.418Z,3.62
2019-01-27T09:29:41.961Z,2.37
2019-01-27T09:30:45.872Z,2.98
2019-01-27T09:31:49.899Z,6.20
2019-01-27T09:32:55.532Z,4.67
2019-01-27T09:33:59.731Z,5.87
2019-01-27T09:34:54.700Z,4.05
2019-01-27T09:36:09.664Z,2.27
2019-01-27T09:37:18.358Z,3.75
2019-01-27T09:38:36.460Z,2.17
2019-01-27T09:39:45.405Z,3.33
2019-01-27T09:40:40.695Z,5.70
2019-01-27T09:41:46.846Z,4.58
2019-01-27T09:42:48.185Z,4.08
2019-01-27T09:43:53.640Z,1.67
2019-01-27T09:44:46.909Z,4.30
2019-01-27T09:46:05.493Z,4.33
2019-01-27T09:47:15.197Z,2.10
2019-01-27T09:48:29.999Z,3.77
2019-01-27T09:49:41.974Z,4.92
2019-01-27T09:50:42.500Z,5.15
2019-01-27T09:51:51.558Z,7.22
2019-01-27T09:52:53.910Z,3.60
2019-01-27T09:53:50.315Z,3.30
2019-01-27T09:54:44.937Z,4.58
2019-01-27T09:56:03.628Z,4.72
2019-01-27T09:57:24.930Z,3.17
2019-01-27T09:58:45.916Z,2.70
2019-01-27T09:59:41.553Z,4.05
2019-01-27T10:00:47.551Z,2.83
2019-01-27T10:01:51.936Z,3.17
2019-01-27T10:03:07.027Z,5.42
2019-01-27T10:04:13.036Z,2.83
2019-01-27T10:05:20.280Z,5.00
2019-01-27T10:06:18.183Z,3.72
2019-01-27T10:07:21.542Z,1.05
2019-01-27T10:08:22.582Z,2.80
2019-01-27T10:09:27.876Z,2.83
2019-01-27T10:10:36.180Z,4.28
2019-01-27T10:11:29.873Z,4.00
2019-01-27T10:12:38.231Z,4.65
2019-01-27T10:13:52.870Z,3.80
2019-01-27T10:14:57.614Z,4.65
2019-01-27T10:16:06.071Z,5.62
2019-01-27T10:17:07.361Z,5.20
2019-01-27T10:18:19.699Z,5.58
2019-01-27T10:19:12.418Z,5.37
2019-01-27T10:20:17.251Z,3.52
2019-01-27T10:21:21.986Z,7.03
2019-01-27T10:22:15.539Z,3.35
2019-01-27T10:23:37.618Z,5.08
2019-01-27T10:24:43.383Z,4.90
2019-01-27T10:25:48.318Z,4.12
2019-01-27T10:27:01.289Z,4.10
2019-01-27T10:28:08.342Z,4.58
2019-01-27T10:29:20.208Z,20.27
2019-01-27T10:30:27.273Z,31.68
2019-01-27T10:31:20.820Z,6.92
2019-01-27T10:32:15.296Z,5.17
2019-01-27T10:33:39.792Z,2.83
2019-01-27T10:35:00.753Z,4.65
2019-01-27T10:36:12.335Z,2.20
2019-01-27T10:37:11.806Z,3.58
2019-01-27T10:38:19.304Z,4.08
2019-01-27T10:39:14.303Z,3.83
2019-01-27T10:40:29.074Z,3.83
2019-01-27T10:41:35.012Z,2.27
2019-01-27T10:42:32.095Z,3.30
2019-01-27T10:43:47.577Z,5.40
2019-01-27T10:45:01.162Z,2.90
2019-01-27T10:46:09.975Z,3.33
2019-01-27T10:47:34.329Z,2.87
2019-01-27T10:48:40.637Z,3.60
2019-01-27T10:49:52.709Z,2.45
2019-01-27T10:51:01.768Z,3.77
2019-01-27T10:52:02.646Z,5.10
2019-01-27T10:53:04.539Z,5.05
2019-01-27T10:53:58.864Z,2.92
2019-01-27T10:55:04.673Z,3.33
2019-01-27T10:56:10.144Z,7.67
2019-01-27T10:57:01.989Z,2.72
2019-01-27T10:58:05.488Z,3.10
2019-01-27T10:59:19.663Z,2.62
2019-01-27T11:00:20.385Z,2.42
2019-01-27T11:01:23.962Z,4.28
2019-01-27T11:02:42.096Z,1.70
2019-01-27T11:03:34.640Z,4.35
2019-01-27T11:04:43.172Z,4.17
2019-01-27T11:06:04.090Z,3.10
2019-01-27T11:07:03.503Z,3.72
2019-01-27T11:08:11.976Z,4.25
2019-01-27T11:09:17.391Z,4.83
2019-01-27T11:10:16.321Z,4.00
2019-01-27T11:11:12.370Z,6.72
2019-01-27T11:12:12.627Z,4.87
2019-01-27T11:13:18.013Z,4.28
2019-01-27T11:14:24.089Z,4.15
2019-01-27T11:15:36.311Z,3.15
2019-01-27T11:16:54.241Z,3.17
2019-01-27T11:18:04.704Z,3.77
2019-01-27T11:19:10.962Z,4.05
2019-01-27T11:20:16.875Z,3.90
2019-01-27T11:21:34.856Z,4.25
2019-01-27T11:22:28.572Z,4.50
2019-01-27T11:23:34.746Z,3.22
2019-01-27T11:24:39.426Z,3.17
2019-01-27T11:25:35.058Z,1.60
2019-01-27T11:26:52.719Z,4.42
2019-01-27T11:28:13.733Z,4.47
2019-01-27T11:29:13.272Z,23.87
2019-01-27T11:30:25.365Z,13.38
2019-01-27T11:31:29.627Z,2.02
2019-01-27T11:32:26.710Z,2.02
2019-01-27T11:33:25.060Z,2.17
2019-01-27T11:34:37.046Z,1.87
2019-01-27T11:35:41.198Z,2.33
2019-01-27T11:37:05.308Z,1.55
2019-01-27T11:38:22.640Z,2.83
2019-01-27T11:39:35.751Z,2.95